sensor_id;sensor_type;location;lat;lon;timestamp;pressure;altitude;pressure_sealevel;temperature;humidity
20630;BME280;17386;43.846;25.950;2023-02-01T00:00:21;101400.03;;;2.51;100.00
20630;BME280;17386;43.846;25.950;2023-02-01T00:02:46;101385.09;;;2.40;100.00
20630;BME280;17386;43.846;25.950;2023-02-01T00:05:12;101389.44;;;2.35;100.00
20630;BME280;17386;43.846;25.950;2023-02-01T00:07:38;101377.16;;;2.31;100.00
20630;BME280;17386;43.846;25.950;2023-02-01T00:10:05;101400.03;;;2.52;100.00
20630;BME280;17386;43.846;25.950;2023-02-01T00:12:32;101393.13;;;2.62;100.00
20630;BME280;17386;43.846;25.950;2023-02-01T00:14:57;101400.03;;;2.47;100.00
20630;BME280;17386;43.846;25.950;2023-02-01T00:17:24;101407.03;;;2.53;100.00
20630;BME280;17386;43.846;25.950;2023-02-01T00:19:51;101405.38;;;2.64;100.00
20630;BME280;17386;43.846;25.950;2023-02-01T00:22:17;101398.44;;;2.69;100.00
20630;BME280;17386;43.846;25.950;2023-02-01T00:24:44;101403.63;;;2.65;100.00
20630;BME280;17386;43.846;25.950;2023-02-01T00:27:11;101408.81;;;2.54;100.00
20630;BME280;17386;43.846;25.950;2023-02-01T00:29:39;101401.63;;;2.30;100.00
20630;BME280;17386;43.846;25.950;2023-02-01T00:32:06;101400.84;;;2.43;100.00
20630;BME280;17386;43.846;25.950;2023-02-01T00:34:32;101388.72;;;2.56;100.00
20630;BME280;17386;43.846;25.950;2023-02-01T00:36:57;101398.38;;;2.65;100.00
20630;BME280;17386;43.846;25.950;2023-02-01T00:39:26;101402.72;;;2.60;100.00
20630;BME280;17386;43.846;25.950;2023-02-01T00:41:53;101407.78;;;2.40;100.00
20630;BME280;17386;43.846;25.950;2023-02-01T00:44:19;101414.84;;;2.42;100.00
20630;BME280;17386;43.846;25.950;2023-02-01T00:46:45;101410.41;;;2.35;100.00
20630;BME280;17386;43.846;25.950;2023-02-01T00:49:10;101411.28;;;2.36;100.00
20630;BME280;17386;43.846;25.950;2023-02-01T00:51:36;101413.97;;;2.43;100.00
20630;BME280;17386;43.846;25.950;2023-02-01T00:54:02;101415.66;;;2.37;100.00
20630;BME280;17386;43.846;25.950;2023-02-01T00:56:28;101413.84;;;2.27;100.00
20630;BME280;17386;43.846;25.950;2023-02-01T00:58:54;101409.53;;;2.36;100.00
20630;BME280;17386;43.846;25.950;2023-02-01T01:01:26;101407.72;;;2.31;100.00
20630;BME280;17386;43.846;25.950;2023-02-01T01:03:56;101410.34;;;2.28;100.00
20630;BME280;17386;43.846;25.950;2023-02-01T01:06:25;101399.88;;;2.32;100.00
20630;BME280;17386;43.846;25.950;2023-02-01T01:08:53;101405.06;;;2.25;100.00
20630;BME280;17386;43.846;25.950;2023-02-01T01:11:24;101400.75;;;2.31;100.00
20630;BME280;17386;43.846;25.950;2023-02-01T01:13:53;101405.94;;;2.25;100.00
20630;BME280;17386;43.846;25.950;2023-02-01T01:16:19;101399.91;;;2.35;100.00
20630;BME280;17386;43.846;25.950;2023-02-01T01:18:46;101391.94;;;2.26;100.00
20630;BME280;17386;43.846;25.950;2023-02-01T01:21:14;101402.47;;;2.28;100.00
20630;BME280;17386;43.846;25.950;2023-02-01T01:23:40;101406.81;;;2.26;100.00
20630;BME280;17386;43.846;25.950;2023-02-01T01:26:09;101401.56;;;2.26;100.00
20630;BME280;17386;43.846;25.950;2023-02-01T01:28:35;101401.59;;;2.29;100.00
20630;BME280;17386;43.846;25.950;2023-02-01T01:31:02;101403.22;;;2.16;100.00
20630;BME280;17386;43.846;25.950;2023-02-01T01:33:28;101385.81;;;2.21;100.00
20630;BME280;17386;43.846;25.950;2023-02-01T01:35:53;101398.09;;;2.28;100.00
20630;BME280;17386;43.846;25.950;2023-02-01T01:38:20;101386.81;;;2.34;100.00
20630;BME280;17386;43.846;25.950;2023-02-01T01:40:47;101393.84;;;2.42;100.00
20630;BME280;17386;43.846;25.950;2023-02-01T01:43:18;101392.91;;;2.34;100.00
20630;BME280;17386;43.846;25.950;2023-02-01T01:45:45;101385.88;;;2.27;100.00
20630;BME280;17386;43.846;25.950;2023-02-01T01:50:45;101388.38;;;2.16;100.00
20630;BME280;17386;43.846;25.950;2023-02-01T01:53:17;101396.13;;;2.06;100.00
20630;BME280;17386;43.846;25.950;2023-02-01T01:55:46;101389.19;;;2.08;100.00
20630;BME280;17386;43.846;25.950;2023-02-01T01:58:25;101386.63;;;2.14;100.00
20630;BME280;17386;43.846;25.950;2023-02-01T02:00:53;101391.94;;;2.25;100.00
20630;BME280;17386;43.846;25.950;2023-02-01T02:03:40;101389.38;;;2.31;100.00
20630;BME280;17386;43.846;25.950;2023-02-01T02:06:15;101395.31;;;2.08;100.00
20630;BME280;17386;43.846;25.950;2023-02-01T02:08:42;101396.16;;;2.07;100.00
20630;BME280;17386;43.846;25.950;2023-02-01T02:11:14;101395.16;;;1.95;100.00
20630;BME280;17386;43.846;25.950;2023-02-01T02:13:46;101393.47;;;2.00;100.00
20630;BME280;17386;43.846;25.950;2023-02-01T02:27:31;101398.66;;;1.94;100.00
20630;BME280;17386;43.846;25.950;2023-02-01T02:30:34;101395.91;;;1.83;100.00
20630;BME280;17386;43.846;25.950;2023-02-01T02:48:12;101393.28;;;1.83;100.00
20630;BME280;17386;43.846;25.950;2023-02-01T02:51:01;101395.16;;;1.96;100.00
20630;BME280;17386;43.846;25.950;2023-02-01T02:53:52;101393.47;;;2.00;100.00
20630;BME280;17386;43.846;25.950;2023-02-01T02:56:40;101371.44;;;1.81;100.00
20630;BME280;17386;43.846;25.950;2023-02-01T02:59:27;101389.78;;;1.81;100.00
20630;BME280;17386;43.846;25.950;2023-02-01T03:02:15;101396.00;;;1.90;100.00
20630;BME280;17386;43.846;25.950;2023-02-01T03:05:01;101396.03;;;1.95;100.00
20630;BME280;17386;43.846;25.950;2023-02-01T03:10:17;101387.31;;;1.96;100.00
20630;BME280;17386;43.846;25.950;2023-02-01T03:12:47;101381.19;;;1.96;100.00
20630;BME280;17386;43.846;25.950;2023-02-01T03:18:39;101397.97;;;2.13;100.00
20630;BME280;17386;43.846;25.950;2023-02-01T03:21:13;101396.00;;;1.90;100.00
20630;BME280;17386;43.846;25.950;2023-02-01T03:23:42;101396.84;;;1.88;100.00
20630;BME280;17386;43.846;25.950;2023-02-01T03:26:13;101392.56;;;1.98;100.00
20630;BME280;17386;43.846;25.950;2023-02-01T03:28:43;101399.63;;;2.05;100.00
20630;BME280;17386;43.846;25.950;2023-02-01T03:31:11;101402.34;;;2.14;100.00
20630;BME280;17386;43.846;25.950;2023-02-01T03:33:40;101408.34;;;2.04;100.00
20630;BME280;17386;43.846;25.950;2023-02-01T03:42:00;101407.47;;;2.02;100.00
20630;BME280;17386;43.846;25.950;2023-02-01T03:47:20;101424.88;;;1.95;100.00
20630;BME280;17386;43.846;25.950;2023-02-01T03:49:50;101413.53;;;1.98;100.00
20630;BME280;17386;43.846;25.950;2023-02-01T03:52:21;101413.59;;;2.02;100.00
20630;BME280;17386;43.846;25.950;2023-02-01T03:54:49;101421.44;;;2.02;100.00
20630;BME280;17386;43.846;25.950;2023-02-01T03:57:21;101418.88;;;2.08;100.00
20630;BME280;17386;43.846;25.950;2023-02-01T03:59:50;101418.00;;;2.06;100.00
20630;BME280;17386;43.846;25.950;2023-02-01T04:02:15;101417.22;;;2.19;100.00
20630;BME280;17386;43.846;25.950;2023-02-01T04:04:41;101407.66;;;2.22;100.00
20630;BME280;17386;43.846;25.950;2023-02-01T04:07:06;101410.22;;;2.18;100.00
20630;BME280;17386;43.846;25.950;2023-02-01T04:09:33;101418.06;;;2.14;100.00
20630;BME280;17386;43.846;25.950;2023-02-01T04:11:58;101427.63;;;2.12;100.00
20630;BME280;17386;43.846;25.950;2023-02-01T04:14:25;101420.78;;;2.23;100.00
20630;BME280;17386;43.846;25.950;2023-02-01T04:16:52;101419.94;;;2.27;100.00
20630;BME280;17386;43.846;25.950;2023-02-01T04:19:19;101427.78;;;2.26;100.00
20630;BME280;17386;43.846;25.950;2023-02-01T04:21:45;101428.75;;;2.35;100.00
20630;BME280;17386;43.846;25.950;2023-02-01T04:24:12;101427.84;;;2.33;100.00
20630;BME280;17386;43.846;25.950;2023-02-01T04:26:37;101422.47;;;2.18;100.00
20630;BME280;17386;43.846;25.950;2023-02-01T04:29:03;101417.16;;;2.09;100.00
20630;BME280;17386;43.846;25.950;2023-02-01T04:31:28;101423.28;;;2.12;100.00
20630;BME280;17386;43.846;25.950;2023-02-01T04:33:55;101431.06;;;2.03;100.00
20630;BME280;17386;43.846;25.950;2023-02-01T04:36:23;101428.44;;;2.00;100.00
20630;BME280;17386;43.846;25.950;2023-02-01T04:38:50;101421.50;;;2.08;100.00
20630;BME280;17386;43.846;25.950;2023-02-01T04:41:18;101431.88;;;1.96;100.00
20630;BME280;17386;43.846;25.950;2023-02-01T04:43:49;101420.63;;;2.06;100.00
20630;BME280;17386;43.846;25.950;2023-02-01T04:46:15;101422.47;;;2.18;100.00
20630;BME280;17386;43.846;25.950;2023-02-01T04:48:41;101427.63;;;2.09;100.00
20630;BME280;17386;43.846;25.950;2023-02-01T04:51:07;101426.81;;;2.14;100.00
20630;BME280;17386;43.846;25.950;2023-02-01T04:53:34;101429.38;;;2.10;100.00
20630;BME280;17386;43.846;25.950;2023-02-01T04:55:59;101415.47;;;2.14;100.00
20630;BME280;17386;43.846;25.950;2023-02-01T04:58:26;101426.69;;;2.04;100.00
20630;BME280;17386;43.846;25.950;2023-02-01T05:00:52;101428.44;;;2.02;100.00
20630;BME280;17386;43.846;25.950;2023-02-01T05:03:19;101424.00;;;1.98;100.00
20630;BME280;17386;43.846;25.950;2023-02-01T05:05:44;101423.03;;;1.88;100.00
20630;BME280;17386;43.846;25.950;2023-02-01T05:08:11;101424.00;;;1.95;100.00
20630;BME280;17386;43.846;25.950;2023-02-01T05:10:38;101421.38;;;1.96;100.00
20630;BME280;17386;43.846;25.950;2023-02-01T05:13:05;101419.66;;;1.98;100.00
20630;BME280;17386;43.846;25.950;2023-02-01T05:15:52;101421.44;;;1.99;100.00
20630;BME280;17386;43.846;25.950;2023-02-01T05:18:19;101410.75;;;1.81;100.00
20630;BME280;17386;43.846;25.950;2023-02-01T05:20:45;101415.13;;;1.85;100.00
20630;BME280;17386;43.846;25.950;2023-02-01T05:23:12;101416.09;;;1.91;100.00
20630;BME280;17386;43.846;25.950;2023-02-01T05:25:37;101425.66;;;1.86;100.00
20630;BME280;17386;43.846;25.950;2023-02-01T05:28:03;101419.56;;;1.92;100.00
20630;BME280;17386;43.846;25.950;2023-02-01T05:30:29;101432.75;;;1.97;100.00
20630;BME280;17386;43.846;25.950;2023-02-01T05:32:55;101430.19;;;2.03;100.00
20630;BME280;17386;43.846;25.950;2023-02-01T05:35:20;101431.06;;;2.03;100.00
20630;BME280;17386;43.846;25.950;2023-02-01T05:37:47;101431.88;;;1.96;100.00
20630;BME280;17386;43.846;25.950;2023-02-01T05:40:14;101422.09;;;1.80;100.00
20630;BME280;17386;43.846;25.950;2023-02-01T05:42:41;101431.63;;;1.75;100.00
20630;BME280;17386;43.846;25.950;2023-02-01T05:45:08;101428.19;;;1.79;100.00
20630;BME280;17386;43.846;25.950;2023-02-01T05:47:35;101431.53;;;1.67;100.00
20630;BME280;17386;43.846;25.950;2023-02-01T05:50:00;101438.63;;;1.74;100.00
20630;BME280;17386;43.846;25.950;2023-02-01T05:52:27;101431.75;;;1.85;100.00
20630;BME280;17386;43.846;25.950;2023-02-01T05:54:54;101439.66;;;1.88;100.00
20630;BME280;17386;43.846;25.950;2023-02-01T05:57:20;101438.69;;;1.82;100.00
20630;BME280;17386;43.846;25.950;2023-02-01T05:59:47;101442.25;;;1.88;100.00
20630;BME280;17386;43.846;25.950;2023-02-01T06:02:16;101436.13;;;1.86;100.00
20630;BME280;17386;43.846;25.950;2023-02-01T06:04:42;101445.81;;;1.94;100.00
20630;BME280;17386;43.846;25.950;2023-02-01T06:07:10;101444.09;;;1.99;100.00
20630;BME280;17386;43.846;25.950;2023-02-01T06:09:36;101436.28;;;2.02;100.00
20630;BME280;17386;43.846;25.950;2023-02-01T06:12:04;101445.03;;;2.01;100.00
20630;BME280;17386;43.846;25.950;2023-02-01T06:14:31;101445.97;;;2.09;100.00
20630;BME280;17386;43.846;25.950;2023-02-01T06:16:57;101447.81;;;2.17;100.00
20630;BME280;17386;43.846;25.950;2023-02-01T06:19:25;101455.50;;;2.02;100.00
20630;BME280;17386;43.846;25.950;2023-02-01T06:21:52;101445.81;;;1.94;100.00
20630;BME280;17386;43.846;25.950;2023-02-01T06:24:18;101452.81;;;1.95;100.00
20630;BME280;17386;43.846;25.950;2023-02-01T06:26:45;101450.25;;;2.01;100.00
20630;BME280;17386;43.846;25.950;2023-02-01T06:29:12;101446.84;;;2.08;100.00
20630;BME280;17386;43.846;25.950;2023-02-01T06:31:39;101448.69;;;2.18;100.00
20630;BME280;17386;43.846;25.950;2023-02-01T06:34:06;101447.00;;;2.23;100.00
20630;BME280;17386;43.846;25.950;2023-02-01T06:36:33;101449.63;;;2.26;100.00
20630;BME280;17386;43.846;25.950;2023-02-01T06:38:58;101456.72;;;2.35;100.00
20630;BME280;17386;43.846;25.950;2023-02-01T06:41:26;101469.03;;;2.42;100.00
20630;BME280;17386;43.846;25.950;2023-02-01T06:43:53;101457.66;;;2.44;100.00
20630;BME280;17386;43.846;25.950;2023-02-01T06:46:19;101458.53;;;2.42;100.00
20630;BME280;17386;43.846;25.950;2023-02-01T06:48:46;101458.59;;;2.48;100.00
20630;BME280;17386;43.846;25.950;2023-02-01T06:51:27;101470.03;;;2.56;100.00
20630;BME280;17386;43.846;25.950;2023-02-01T06:53:55;101462.22;;;2.61;100.00
20630;BME280;17386;43.846;25.950;2023-02-01T06:56:22;101459.66;;;2.68;100.00
20630;BME280;17386;43.846;25.950;2023-02-01T06:58:48;101470.16;;;2.70;100.00
20630;BME280;17386;43.846;25.950;2023-02-01T07:01:14;101468.41;;;2.70;100.00
20630;BME280;17386;43.846;25.950;2023-02-01T07:03:40;101470.97;;;2.61;100.00
20630;BME280;17386;43.846;25.950;2023-02-01T07:06:07;101468.34;;;2.63;100.00
20630;BME280;17386;43.846;25.950;2023-02-01T07:08:37;101468.41;;;2.72;100.00
20630;BME280;17386;43.846;25.950;2023-02-01T07:11:09;101471.03;;;2.72;100.00
20630;BME280;17386;43.846;25.950;2023-02-01T07:13:36;101472.88;;;2.84;100.00
20630;BME280;17386;43.846;25.950;2023-02-01T07:16:04;101466.84;;;3.00;100.00
20630;BME280;17386;43.846;25.950;2023-02-01T07:18:31;101470.50;;;3.19;100.00
20630;BME280;17386;43.846;25.950;2023-02-01T07:20:58;101478.28;;;3.08;100.00
20630;BME280;17386;43.846;25.950;2023-02-01T07:23:26;101481.63;;;2.83;100.00
20630;BME280;17386;43.846;25.950;2023-02-01T07:25:57;101490.31;;;2.80;100.00
20630;BME280;17386;43.846;25.950;2023-02-01T07:28:24;101490.44;;;2.91;100.00
20630;BME280;17386;43.846;25.950;2023-02-01T07:30:51;101487.84;;;3.00;100.00
20630;BME280;17386;43.846;25.950;2023-02-01T07:33:20;101491.34;;;3.00;100.00
20630;BME280;17386;43.846;25.950;2023-02-01T07:35:51;101484.41;;;3.04;100.00
20630;BME280;17386;43.846;25.950;2023-02-01T07:38:17;101489.56;;;2.92;100.00
20630;BME280;17386;43.846;25.950;2023-02-01T07:40:44;101472.09;;;3.00;100.00
20630;BME280;17386;43.846;25.950;2023-02-01T07:43:10;101469.63;;;3.21;100.00
20630;BME280;17386;43.846;25.950;2023-02-01T07:45:37;101475.66;;;3.04;100.00
20630;BME280;17386;43.846;25.950;2023-02-01T07:48:04;101459.94;;;3.13;100.00
20630;BME280;17386;43.846;25.950;2023-02-01T07:50:31;101470.53;;;3.25;100.00
20630;BME280;17386;43.846;25.950;2023-02-01T07:53:00;101473.94;;;3.10;100.00
20630;BME280;17386;43.846;25.950;2023-02-01T07:55:28;101478.28;;;3.04;100.00
20630;BME280;17386;43.846;25.950;2023-02-01T07:57:58;101484.44;;;3.10;100.00
20630;BME280;17386;43.846;25.950;2023-02-01T08:00:23;101483.69;;;3.33;100.00
20630;BME280;17386;43.846;25.950;2023-02-01T08:03:07;101489.69;;;3.10;100.00
20630;BME280;17386;43.846;25.950;2023-02-01T08:05:34;101495.78;;;3.05;100.00
20630;BME280;17386;43.846;25.950;2023-02-01T08:08:03;101486.31;;;3.29;100.00
20630;BME280;17386;43.846;25.950;2023-02-01T08:10:30;101480.16;;;3.27;100.00
20630;BME280;17386;43.846;25.950;2023-02-01T08:12:59;101481.13;;;3.37;100.00
20630;BME280;17386;43.846;25.950;2023-02-01T08:15:27;101453.06;;;3.30;100.00
20630;BME280;17386;43.846;25.950;2023-02-01T08:17:53;101468.03;;;3.45;100.00
20630;BME280;17386;43.846;25.950;2023-02-01T08:20:20;101462.78;;;3.49;100.00
20630;BME280;17386;43.846;25.950;2023-02-01T08:22:50;101459.34;;;3.64;100.00
20630;BME280;17386;43.846;25.950;2023-02-01T08:25:17;101455.88;;;3.74;100.00
20630;BME280;17386;43.846;25.950;2023-02-01T08:27:43;101458.47;;;3.65;100.00
20630;BME280;17386;43.846;25.950;2023-02-01T08:30:10;101463.72;;;3.67;100.00
20630;BME280;17386;43.846;25.950;2023-02-01T08:32:37;101467.25;;;3.76;100.00
20630;BME280;17386;43.846;25.950;2023-02-01T08:35:04;101462.06;;;3.90;100.00
20630;BME280;17386;43.846;25.950;2023-02-01T08:37:31;101469.16;;;4.14;100.00
20630;BME280;17386;43.846;25.950;2023-02-01T08:39:58;101477.06;;;4.31;100.00
20630;BME280;17386;43.846;25.950;2023-02-01T08:42:25;101483.19;;;4.24;100.00
20630;BME280;17386;43.846;25.950;2023-02-01T08:45:10;101476.19;;;4.32;100.00
20630;BME280;17386;43.846;25.950;2023-02-01T08:47:37;101490.25;;;4.40;100.00
20630;BME280;17386;43.846;25.950;2023-02-01T08:50:05;101479.75;;;4.46;100.00
20630;BME280;17386;43.846;25.950;2023-02-01T08:52:32;101476.22;;;4.85;100.00
20630;BME280;17386;43.846;25.950;2023-02-01T08:54:59;101473.56;;;5.07;100.00
20630;BME280;17386;43.846;25.950;2023-02-01T08:57:24;101480.59;;;5.23;100.00
20630;BME280;17386;43.846;25.950;2023-02-01T08:59:56;101466.56;;;5.09;100.00
20630;BME280;17386;43.846;25.950;2023-02-01T09:02:22;101468.25;;;5.28;100.00
20630;BME280;17386;43.846;25.950;2023-02-01T09:04:49;101465.50;;;5.72;100.00
20630;BME280;17386;43.846;25.950;2023-02-01T09:07:17;101468.84;;;6.11;100.00
20630;BME280;17386;43.846;25.950;2023-02-01T09:09:45;101462.56;;;6.32;100.00
20630;BME280;17386;43.846;25.950;2023-02-01T09:12:12;101467.59;;;6.64;100.00
20630;BME280;17386;43.846;25.950;2023-02-01T09:14:38;101469.38;;;6.62;100.00
20630;BME280;17386;43.846;25.950;2023-02-01T09:17:05;101464.94;;;6.69;100.00
20630;BME280;17386;43.846;25.950;2023-02-01T09:19:32;101466.75;;;6.61;99.18
20630;BME280;17386;43.846;25.950;2023-02-01T09:21:59;101465.22;;;6.29;99.06
20630;BME280;17386;43.846;25.950;2023-02-01T09:24:26;101458.28;;;6.14;100.00
20630;BME280;17386;43.846;25.950;2023-02-01T09:26:53;101456.59;;;5.96;100.00
20630;BME280;17386;43.846;25.950;2023-02-01T09:29:21;101449.63;;;5.91;100.00
20630;BME280;17386;43.846;25.950;2023-02-01T09:31:47;101450.50;;;5.81;100.00
20630;BME280;17386;43.846;25.950;2023-02-01T09:34:13;101444.38;;;5.79;100.00
20630;BME280;17386;43.846;25.950;2023-02-01T09:36:40;101440.84;;;5.80;100.00
20630;BME280;17386;43.846;25.950;2023-02-01T09:39:09;101442.59;;;5.82;100.00
20630;BME280;17386;43.846;25.950;2023-02-01T09:42:02;101428.53;;;5.80;100.00
20630;BME280;17386;43.846;25.950;2023-02-01T09:47:14;101431.88;;;6.19;100.00
20630;BME280;17386;43.846;25.950;2023-02-01T09:53:00;101431.56;;;6.60;99.26
20630;BME280;17386;43.846;25.950;2023-02-01T09:55:40;101424.41;;;6.71;100.00
20630;BME280;17386;43.846;25.950;2023-02-01T09:58:17;101436.59;;;6.89;98.69
20630;BME280;17386;43.846;25.950;2023-02-01T10:00:58;101426.91;;;6.88;97.75
20630;BME280;17386;43.846;25.950;2023-02-01T10:03:28;101416.16;;;7.05;99.22
20630;BME280;17386;43.846;25.950;2023-02-01T10:09:20;101415.13;;;7.21;98.13
20630;BME280;17386;43.846;25.950;2023-02-01T10:18:35;101395.66;;;7.28;98.94
20630;BME280;17386;43.846;25.950;2023-02-01T10:26:45;101391.34;;;7.18;98.19
20630;BME280;17386;43.846;25.950;2023-02-01T10:29:18;101383.47;;;7.17;97.60
20630;BME280;17386;43.846;25.950;2023-02-01T10:31:46;101385.34;;;7.76;96.09
20630;BME280;17386;43.846;25.950;2023-02-01T10:34:31;101395.53;;;8.02;92.86
20630;BME280;17386;43.846;25.950;2023-02-01T10:40:17;101375.38;;;9.01;88.56
20630;BME280;17386;43.846;25.950;2023-02-01T10:42:45;101368.97;;;9.13;87.68
20630;BME280;17386;43.846;25.950;2023-02-01T10:45:23;101368.13;;;8.63;86.18
20630;BME280;17386;43.846;25.950;2023-02-01T10:47:52;101371.97;;;8.44;88.65
20630;BME280;17386;43.846;25.950;2023-02-01T10:50:34;101366.22;;;8.17;90.31
20630;BME280;17386;43.846;25.950;2023-02-01T10:55:51;101357.13;;;8.34;91.67
20630;BME280;17386;43.846;25.950;2023-02-01T10:58:32;101350.25;;;8.23;91.15
20630;BME280;17386;43.846;25.950;2023-02-01T11:01:00;101354.47;;;8.34;89.55
20630;BME280;17386;43.846;25.950;2023-02-01T11:04:00;101350.00;;;7.83;89.67
20630;BME280;17386;43.846;25.950;2023-02-01T11:06:44;101348.22;;;7.84;93.17
20630;BME280;17386;43.846;25.950;2023-02-01T11:09:22;101347.03;;;8.05;91.91
20630;BME280;17386;43.846;25.950;2023-02-01T11:17:38;101342.25;;;7.68;92.92
20630;BME280;17386;43.846;25.950;2023-02-01T11:19:36;101322.72;;;7.78;94.58
20630;BME280;17386;43.846;25.950;2023-02-01T11:22:03;101318.22;;;7.85;94.34
20630;BME280;17386;43.846;25.950;2023-02-01T11:24:35;101313.66;;;7.94;94.68
20630;BME280;17386;43.846;25.950;2023-02-01T11:27:05;101309.06;;;8.06;93.57
20630;BME280;17386;43.846;25.950;2023-02-01T11:29:41;101306.06;;;7.72;94.08
20630;BME280;17386;43.846;25.950;2023-02-01T11:32:12;101313.28;;;7.62;96.47
20630;BME280;17386;43.846;25.950;2023-02-01T11:37:38;101286.88;;;7.59;96.73
20630;BME280;17386;43.846;25.950;2023-02-01T11:40:27;101284.75;;;7.82;96.75
20630;BME280;17386;43.846;25.950;2023-02-01T11:42:59;101287.25;;;7.91;96.77
20630;BME280;17386;43.846;25.950;2023-02-01T11:45:30;101276.53;;;7.99;95.52
20630;BME280;17386;43.846;25.950;2023-02-01T11:47:58;101283.47;;;8.06;95.98
20630;BME280;17386;43.846;25.950;2023-02-01T11:50:37;101278.16;;;8.08;94.14
20630;BME280;17386;43.846;25.950;2023-02-01T11:59:08;101276.03;;;8.28;93.60
20630;BME280;17386;43.846;25.950;2023-02-01T12:04:00;101261.13;;;8.22;93.82
20630;BME280;17386;43.846;25.950;2023-02-01T12:12:18;101252.00;;;8.42;95.15
20630;BME280;17386;43.846;25.950;2023-02-01T12:15:03;101257.75;;;8.64;94.70
20630;BME280;17386;43.846;25.950;2023-02-01T12:23:21;101242.25;;;8.89;93.04
20630;BME280;17386;43.846;25.950;2023-02-01T12:37:06;101246.22;;;8.68;90.34
20630;BME280;17386;43.846;25.950;2023-02-01T12:39:45;101245.84;;;8.85;91.78
20630;BME280;17386;43.846;25.950;2023-02-01T12:44:51;101236.25;;;8.81;90.82
20630;BME280;17386;43.846;25.950;2023-02-01T12:47:26;101237.97;;;8.82;90.89
20630;BME280;17386;43.846;25.950;2023-02-01T12:52:42;101224.00;;;8.75;90.87
20630;BME280;17386;43.846;25.950;2023-02-01T12:57:43;101225.69;;;8.79;90.25
20630;BME280;17386;43.846;25.950;2023-02-01T13:02:52;101224.06;;;8.72;88.98
20630;BME280;17386;43.846;25.950;2023-02-01T13:05:42;101228.34;;;8.77;89.48
20630;BME280;17386;43.846;25.950;2023-02-01T13:08:14;101229.94;;;8.85;89.01
20630;BME280;17386;43.846;25.950;2023-02-01T13:13:16;101226.50;;;8.81;90.09
20630;BME280;17386;43.846;25.950;2023-02-01T13:15:54;101228.69;;;8.61;89.11
20630;BME280;17386;43.846;25.950;2023-02-01T13:18:22;101223.31;;;8.64;90.22
20630;BME280;17386;43.846;25.950;2023-02-01T13:21:07;101239.00;;;8.74;91.45
20630;BME280;17386;43.846;25.950;2023-02-01T13:23:37;101232.13;;;8.64;90.47
20630;BME280;17386;43.846;25.950;2023-02-01T13:26:03;101232.13;;;8.64;90.05
20630;BME280;17386;43.846;25.950;2023-02-01T13:28:34;101227.75;;;8.65;91.27
20630;BME280;17386;43.846;25.950;2023-02-01T13:39:45;101231.09;;;8.71;88.47
20630;BME280;17386;43.846;25.950;2023-02-01T13:42:29;101224.09;;;8.69;88.22
20630;BME280;17386;43.846;25.950;2023-02-01T13:45:03;101230.28;;;8.69;88.63
20630;BME280;17386;43.846;25.950;2023-02-01T13:47:40;101235.56;;;8.69;88.38
20630;BME280;17386;43.846;25.950;2023-02-01T13:50:38;101229.50;;;8.64;88.26
20630;BME280;17386;43.846;25.950;2023-02-01T13:53:31;101233.13;;;8.60;88.36
20630;BME280;17386;43.846;25.950;2023-02-01T13:56:03;101232.16;;;8.63;89.80
20630;BME280;17386;43.846;25.950;2023-02-01T13:58:37;101235.78;;;8.60;88.52
20630;BME280;17386;43.846;25.950;2023-02-01T14:01:32;101233.28;;;8.53;86.34
20630;BME280;17386;43.846;25.950;2023-02-01T14:04:01;101236.78;;;8.53;86.28
20630;BME280;17386;43.846;25.950;2023-02-01T14:19:31;101228.31;;;8.33;89.45
20630;BME280;17386;43.846;25.950;2023-02-01T14:24:29;101224.88;;;8.28;91.13
20630;BME280;17386;43.846;25.950;2023-02-01T14:29:42;101234.66;;;8.24;92.88
20630;BME280;17386;43.846;25.950;2023-02-01T14:32:21;101229.41;;;8.21;94.16
20630;BME280;17386;43.846;25.950;2023-02-01T14:34:51;101233.91;;;8.17;94.57
20630;BME280;17386;43.846;25.950;2023-02-01T14:37:26;101233.91;;;8.17;95.23
20630;BME280;17386;43.846;25.950;2023-02-01T14:42:50;101234.91;;;8.10;96.59
20630;BME280;17386;43.846;25.950;2023-02-01T14:50:41;101231.59;;;7.98;99.26
20630;BME280;17386;43.846;25.950;2023-02-01T14:58:37;101220.28;;;7.89;100.00
20630;BME280;17386;43.846;25.950;2023-02-01T15:08:58;101229.44;;;7.67;100.00
20630;BME280;17386;43.846;25.950;2023-02-01T15:11:25;101226.75;;;7.68;100.00
20630;BME280;17386;43.846;25.950;2023-02-01T15:13:53;101232.97;;;7.69;100.00
20630;BME280;17386;43.846;25.950;2023-02-01T15:16:24;101236.53;;;7.65;100.00
20630;BME280;17386;43.846;25.950;2023-02-01T15:19:06;101238.41;;;7.58;100.00
20630;BME280;17386;43.846;25.950;2023-02-01T15:21:46;101233.03;;;7.61;100.00
20630;BME280;17386;43.846;25.950;2023-02-01T15:26:52;101243.03;;;7.44;100.00
20630;BME280;17386;43.846;25.950;2023-02-01T15:29:20;101247.44;;;7.44;100.00
20630;BME280;17386;43.846;25.950;2023-02-01T15:31:49;101251.88;;;7.40;100.00
20630;BME280;17386;43.846;25.950;2023-02-01T15:34:16;101243.97;;;7.38;100.00
20630;BME280;17386;43.846;25.950;2023-02-01T15:36:44;101242.19;;;7.40;100.00
20630;BME280;17386;43.846;25.950;2023-02-01T15:39:22;101233.63;;;7.23;100.00
20630;BME280;17386;43.846;25.950;2023-02-01T15:42:00;101231.13;;;7.12;100.00
20630;BME280;17386;43.846;25.950;2023-02-01T15:44:38;101239.09;;;7.09;100.00
20630;BME280;17386;43.846;25.950;2023-02-01T15:49:45;101240.09;;;6.99;100.00
20630;BME280;17386;43.846;25.950;2023-02-01T15:52:23;101241.94;;;6.96;100.00
20630;BME280;17386;43.846;25.950;2023-02-01T15:54:56;101247.34;;;6.87;100.00